Time;durP1;ratioP1;P1;durP2;ratioP2;P2;SDS_P1;SDS_P2;PMS_P1;PMS_P2;Temp;Humidity;BMP_temperature;BMP_pressure;BME280_temperature;BME280_humidity;BME280_pressure;Samples;Min_cycle;Max_cycle;Signal;HPM_P1;HPM_P2
2020/12/26 00:00:23;;;;;;;8.07;6.30;;;4.30;98.40;;;;;;4973263;28;20756;-75
2020/12/26 00:02:49;;;;;;;9.33;6.27;;;4.20;98.60;;;;;;4954610;28;20419;-76
2020/12/26 00:05:15;;;;;;;7.38;6.60;;;4.10;99.10;;;;;;4977799;28;20412;-76
2020/12/26 00:07:41;;;;;;;6.43;4.68;;;;;;;;;;4956313;28;20419;-75
2020/12/26 00:10:07;;;;;;;6.37;5.00;;;;;;;;;;4972909;28;20907;-75
2020/12/26 00:12:34;;;;;;;5.95;5.22;;;;;;;;;;4979382;28;20426;-75
2020/12/26 00:15:00;;;;;;;8.23;7.33;;;4.00;99.60;;;;;;4982954;28;20402;-75
2020/12/26 00:17:27;;;;;;;7.05;5.50;;;3.70;99.70;;;;;;4974251;28;20459;-76
2020/12/26 00:19:53;;;;;;;8.07;6.00;;;3.90;99.50;;;;;;4978957;28;20495;-75
2020/12/26 00:22:18;;;;;;;7.65;5.80;;;3.90;99.00;;;;;;4978114;28;20983;-75
2020/12/26 00:24:44;;;;;;;7.82;5.85;;;3.80;99.20;;;;;;4976371;28;20475;-75
2020/12/26 00:27:10;;;;;;;7.13;5.88;;;3.80;99.20;;;;;;4977134;28;20932;-76
2020/12/26 00:29:36;;;;;;;7.60;6.07;;;3.70;99.40;;;;;;4974655;28;20422;-75
2020/12/26 00:32:02;;;;;;;8.95;5.88;;;;;;;;;;4974564;28;20392;-75
2020/12/26 00:34:29;;;;;;;8.48;6.55;;;;;;;;;;4973167;28;20427;-75
2020/12/26 00:36:55;;;;;;;11.60;7.82;;;3.70;99.50;;;;;;4979366;28;20446;-75
2020/12/26 00:39:21;;;;;;;8.00;5.80;;;3.10;99.90;;;;;;4985251;28;20450;-75
2020/12/26 00:41:47;;;;;;;9.18;6.95;;;3.10;99.90;;;;;;4981263;28;20412;-75
2020/12/26 00:44:13;;;;;;;8.57;6.18;;;3.20;99.90;;;;;;4979486;28;20440;-75
2020/12/26 00:46:39;;;;;;;7.85;6.07;;;3.20;99.90;;;;;;4961937;28;20423;-75
2020/12/26 00:49:05;;;;;;;9.15;7.00;;;;;;;;;;4984734;28;20417;-75
2020/12/26 00:51:32;;;;;;;10.70;8.50;;;;;;;;;;4975502;28;20846;-77
2020/12/26 00:53:58;;;;;;;10.05;7.30;;;;;;;;;;4979195;28;20414;-75
2020/12/26 00:56:24;;;;;;;10.77;7.60;;;;;;;;;;4977189;28;20404;-75
2020/12/26 00:58:50;;;;;;;9.88;6.60;;;;;;;;;;4977605;28;20891;-75
2020/12/26 01:01:16;;;;;;;9.70;6.75;;;;;;;;;;4986334;28;20410;-75
2020/12/26 01:03:43;;;;;;;10.18;6.90;;;;;;;;;;4980369;28;20408;-75
2020/12/26 01:06:15;;;;;;;9.60;6.25;;;;;;;;;;4983802;28;20798;-75
2020/12/26 01:08:42;;;;;;;10.85;7.07;;;;;;;;;;4975999;28;20481;-75
2020/12/26 01:11:08;;;;;;;9.75;6.38;;;;;;;;;;4976276;28;20443;-75
2020/12/26 01:13:35;;;;;;;11.07;7.97;;;;;;;;;;4985654;28;20414;-75
2020/12/26 01:16:00;;;;;;;10.52;7.18;;;3.20;99.90;;;;;;4975036;28;20462;-75
2020/12/26 01:18:29;;;;;;;10.30;6.97;;;3.00;99.90;;;;;;4984222;28;20894;-75
2020/12/26 01:20:55;;;;;;;10.55;7.30;;;2.90;99.90;;;;;;4962256;28;20545;-75
2020/12/26 01:23:21;;;;;;;9.75;6.93;;;2.90;99.90;;;;;;4981353;28;20426;-75
2020/12/26 01:25:48;;;;;;;10.10;7.60;;;2.90;99.90;;;;;;4978076;28;20414;-74
2020/12/26 01:28:14;;;;;;;9.23;6.85;;;2.80;99.90;;;;;;4972914;28;20419;-75
2020/12/26 01:30:40;;;;;;;9.45;6.80;;;2.90;99.90;;;;;;4970151;28;20487;-75
2020/12/26 01:33:06;;;;;;;11.05;8.02;;;2.90;99.90;;;;;;4975053;28;20503;-75
2020/12/26 01:35:32;;;;;;;11.68;8.38;;;2.60;99.90;;;;;;4987135;28;20398;-75
2020/12/26 01:37:58;;;;;;;10.53;7.73;;;2.50;99.90;;;;;;4981034;28;20457;-75
2020/12/26 01:40:24;;;;;;;11.35;8.18;;;2.50;99.90;;;;;;4983822;28;20410;-76
2020/12/26 01:42:51;;;;;;;9.88;8.10;;;2.40;99.90;;;;;;4980843;28;20407;-75
2020/12/26 01:45:16;;;;;;;15.93;10.88;;;2.40;99.90;;;;;;4980508;28;20404;-75
2020/12/26 01:47:42;;;;;;;9.80;6.80;;;2.40;99.90;;;;;;4978719;28;20392;-75
2020/12/26 01:50:08;;;;;;;9.50;7.65;;;2.40;99.90;;;;;;4977770;28;20926;-75
2020/12/26 01:52:35;;;;;;;17.53;11.47;;;2.40;99.90;;;;;;4978368;28;20475;-75
2020/12/26 01:55:02;;;;;;;15.30;10.07;;;2.30;99.90;;;;;;4976253;28;20477;-75
2020/12/26 01:57:34;;;;;;;15.70;11.50;;;2.40;99.90;;;;;;4975328;28;20479;-75
2020/12/26 02:00:03;;;;;;;11.13;8.35;;;2.50;99.90;;;;;;4981317;28;20500;-75
2020/12/26 02:02:28;;;;;;;12.05;9.15;;;2.50;99.90;;;;;;4984093;28;20436;-69
2020/12/26 02:04:54;;;;;;;9.50;6.57;;;2.50;99.90;;;;;;5005211;23;20513;-75
2020/12/26 02:07:20;;;;;;;10.95;8.02;;;2.50;99.90;;;;;;4994281;28;20893;-77
2020/12/26 02:09:47;;;;;;;7.20;5.97;;;2.60;99.90;;;;;;4993354;28;20445;-76
2020/12/26 02:12:13;;;;;;;8.98;6.95;;;2.60;99.90;;;;;;4994387;28;20450;-76
2020/12/26 02:14:44;;;;;;;8.23;6.55;;;2.60;99.90;;;;;;4994353;28;20395;-74
2020/12/26 02:17:11;;;;;;;7.53;6.25;;;2.70;99.90;;;;;;4994392;28;20406;-76
2020/12/26 02:19:37;;;;;;;7.43;5.93;;;2.80;99.90;;;;;;4994124;28;20395;-76
2020/12/26 02:22:03;;;;;;;6.47;5.57;;;2.70;99.90;;;;;;5006653;28;20402;-76
2020/12/26 02:24:30;;;;;;;8.10;6.80;;;2.80;99.90;;;;;;4994263;28;20477;-75
2020/12/26 02:26:56;;;;;;;8.25;6.88;;;2.80;99.90;;;;;;5002721;28;20425;-76
2020/12/26 02:29:22;;;;;;;9.07;6.38;;;2.50;99.90;;;;;;4987824;28;20414;-75
2020/12/26 02:31:48;;;;;;;8.17;6.40;;;2.60;99.90;;;;;;4994109;28;20399;-76
2020/12/26 02:34:14;;;;;;;7.22;5.55;;;2.40;99.90;;;;;;5001153;28;20842;-77
2020/12/26 02:36:40;;;;;;;8.18;5.72;;;2.40;99.90;;;;;;5003746;28;20403;-76
2020/12/26 02:39:07;;;;;;;6.97;5.90;;;2.40;99.90;;;;;;4995964;28;20921;-76
2020/12/26 02:41:34;;;;;;;7.22;5.88;;;2.40;99.90;;;;;;4993894;28;20394;-75
2020/12/26 02:44:00;;;;;;;7.30;5.53;;;2.40;99.90;;;;;;5006647;28;20409;-76
2020/12/26 02:46:26;;;;;;;6.90;6.10;;;2.30;99.90;;;;;;5006372;28;20406;-75
2020/12/26 02:48:52;;;;;;;7.28;6.07;;;;;;;;;;4993720;28;20424;-75
2020/12/26 02:51:18;;;;;;;8.80;6.50;;;;;;;;;;4993795;28;20448;-75
2020/12/26 02:53:44;;;;;;;7.88;6.43;;;;;;;;;;4992497;28;20398;-75
2020/12/26 02:56:11;;;;;;;9.50;6.75;;;;;;;;;;4993605;28;20877;-75
2020/12/26 02:58:39;;;;;;;7.63;6.47;;;;;;;;;;4992121;28;20407;-75
2020/12/26 03:01:07;;;;;;;9.20;6.97;;;;;;;;;;4992291;28;20479;-75
2020/12/26 03:03:33;;;;;;;8.07;6.38;;;;;;;;;;4993314;28;20448;-75
2020/12/26 03:06:00;;;;;;;8.05;6.68;;;;;;;;;;5005752;28;20497;-75
2020/12/26 03:08:26;;;;;;;9.57;6.57;;;;;;;;;;4993264;28;20417;-75
2020/12/26 03:10:53;;;;;;;7.73;6.43;;;;;;;;;;5006919;28;20452;-75
2020/12/26 03:13:19;;;;;;;8.20;6.93;;;;;;;;;;4990587;28;20953;-75
2020/12/26 03:15:46;;;;;;;9.05;6.88;;;;;;;;;;4993305;28;20481;-75
2020/12/26 03:18:12;;;;;;;8.10;6.05;;;;;;;;;;4996878;28;20428;-75
2020/12/26 03:20:39;;;;;;;7.45;6.30;;;;;;;;;;4997714;28;20403;-75
2020/12/26 03:23:05;;;;;;;8.35;6.32;;;;;;;;;;4995968;28;20452;-75
2020/12/26 03:25:33;;;;;;;8.73;6.10;;;;;;;;;;4995072;28;20407;-75
2020/12/26 03:27:59;;;;;;;4.43;3.03;;;;;;;;;;5005847;28;20406;-75
2020/12/26 03:30:25;;;;;;;0.28;0.20;;;;;;;;;;5006108;28;20425;-75
2020/12/26 03:32:52;;;;;;;0.22;0.22;;;;;;;;;;5007306;28;20517;-76
2020/12/26 03:35:18;;;;;;;0.90;0.10;;;;;;;;;;4996303;28;20414;-76
2020/12/26 03:37:44;;;;;;;4.10;2.63;;;;;;;;;;4998932;28;20412;-75
2020/12/26 03:40:11;;;;;;;6.90;5.13;;;;;;;;;;4992925;28;20399;-75
2020/12/26 03:42:37;;;;;;;9.02;5.95;;;;;;;;;;5000375;28;20413;-75
2020/12/26 03:45:03;;;;;;;5.20;4.53;;;;;;;;;;4992954;28;20421;-75
2020/12/26 03:47:29;;;;;;;6.97;5.30;;;;;;;;;;4992726;28;20405;-75
2020/12/26 03:49:56;;;;;;;6.20;5.23;;;2.30;99.90;;;;;;4992844;28;20519;-76
2020/12/26 03:52:22;;;;;;;4.53;2.97;;;2.50;98.80;;;;;;5001972;28;20435;-75
2020/12/26 03:54:48;;;;;;;0.15;0.10;;;2.40;95.00;;;;;;4990168;28;20437;-75
2020/12/26 03:57:14;;;;;;;0.20;0.00;;;;;;;;;;4992892;28;20395;-76
2020/12/26 03:59:41;;;;;;;0.20;0.10;;;;;;;;;;4998230;28;20414;-75
2020/12/26 04:02:07;;;;;;;0.05;0.05;;;;;;;;;;4978164;28;20409;-76
2020/12/26 04:04:36;;;;;;;0.20;0.10;;;3.70;58.10;;;;;;5000598;28;20919;-75
2020/12/26 04:07:03;;;;;;;0.35;0.10;;;4.70;51.30;;;;;;4992738;28;20968;-75
2020/12/26 04:09:29;;;;;;;0.32;0.10;;;4.90;50.20;;;;;;4993752;28;20520;-75
2020/12/26 04:11:55;;;;;;;0.10;0.10;;;5.10;48.70;;;;;;4999093;28;20973;-75
2020/12/26 04:14:21;;;;;;;0.00;0.00;;;5.20;49.20;;;;;;4999203;28;20884;-75
2020/12/26 04:16:47;;;;;;;0.10;0.10;;;5.20;47.80;;;;;;4996148;28;20455;-76
2020/12/26 04:19:12;;;;;;;0.60;0.10;;;5.30;48.10;;;;;;5000818;28;20448;-75
2020/12/26 04:21:38;;;;;;;0.10;0.10;;;5.40;47.30;;;;;;4994092;28;20485;-75
2020/12/26 04:24:05;;;;;;;0.10;0.10;;;5.40;46.60;;;;;;4992688;28;20410;-75
2020/12/26 04:26:31;;;;;;;0.38;0.30;;;5.50;46.60;;;;;;4999148;28;20398;-75
2020/12/26 04:28:57;;;;;;;0.70;0.10;;;5.50;45.90;;;;;;5010507;28;20541;-76
2020/12/26 04:31:22;;;;;;;1.53;0.20;;;5.50;44.80;;;;;;5012954;28;20404;-75
2020/12/26 04:33:48;;;;;;;0.70;0.40;;;5.60;44.40;;;;;;5000556;28;20403;-75
2020/12/26 04:36:14;;;;;;;0.10;0.00;;;5.70;44.20;;;;;;4993851;28;20414;-75
2020/12/26 04:38:40;;;;;;;0.50;0.10;;;5.80;43.40;;;;;;5003711;28;20440;-76
2020/12/26 04:41:07;;;;;;;0.10;0.10;;;5.80;43.60;;;;;;4998916;28;20416;-75
2020/12/26 04:43:33;;;;;;;0.80;0.10;;;5.80;43.10;;;;;;4998889;28;20406;-75
2020/12/26 04:46:04;;;;;;;0.45;0.10;;;5.80;43.40;;;;;;4998799;28;21001;-75
2020/12/26 04:48:33;;;;;;;0.35;0.10;;;5.90;42.90;;;;;;4998875;28;20530;-76
2020/12/26 04:51:02;;;;;;;1.00;0.10;;;5.80;43.40;;;;;;4992355;28;20751;-76
2020/12/26 04:53:33;;;;;;;0.03;0.03;;;5.90;42.50;;;;;;5012291;28;20406;-76
2020/12/26 04:56:01;;;;;;;0.20;0.10;;;5.90;43.40;;;;;;5012378;28;20442;-75
2020/12/26 04:58:29;;;;;;;0.40;0.10;;;6.00;42.40;;;;;;5007101;28;20406;-76
2020/12/26 05:00:55;;;;;;;0.05;0.00;;;5.90;42.40;;;;;;4998621;28;20408;-76
2020/12/26 05:03:25;;;;;;;0.00;0.00;;;5.90;41.70;;;;;;4988838;28;20414;-76
2020/12/26 05:05:53;;;;;;;0.10;0.05;;;5.90;42.10;;;;;;4998572;28;20510;-76
2020/12/26 05:08:19;;;;;;;1.35;0.10;;;6.00;41.40;;;;;;4998750;28;20394;-76
2020/12/26 05:10:45;;;;;;;0.47;0.10;;;6.10;41.10;;;;;;5000762;28;20429;-76
2020/12/26 05:13:12;;;;;;;1.10;0.10;;;6.10;40.50;;;;;;4998389;28;20762;-76
2020/12/26 05:15:39;;;;;;;0.20;0.20;;;6.10;40.90;;;;;;4989463;28;20546;-76
2020/12/26 05:18:05;;;;;;;0.80;0.08;;;6.10;40.90;;;;;;4990774;28;20409;-76
2020/12/26 05:20:32;;;;;;;0.32;0.10;;;6.00;41.60;;;;;;5006649;28;20402;-76
2020/12/26 05:23:06;;;;;;;0.10;0.10;;;6.00;41.40;;;;;;4995595;28;20453;-76
2020/12/26 05:25:32;;;;;;;0.13;0.10;;;5.80;42.40;;;;;;4995342;28;20429;-76
2020/12/26 05:28:11;;;;;;;1.40;0.10;;;5.70;42.00;;;;;;5002850;28;20441;-76
2020/12/26 05:30:37;;;;;;;0.10;0.10;;;5.80;41.10;;;;;;4995113;28;20526;-76
2020/12/26 05:33:06;;;;;;;0.30;0.10;;;5.70;41.90;;;;;;4995384;28;20398;-75
2020/12/26 05:35:40;;;;;;;0.10;0.10;;;5.80;40.60;;;;;;4972003;28;20804;-75
2020/12/26 05:38:18;;;;;;;0.85;0.10;;;5.80;41.10;;;;;;4995329;28;20493;-76
2020/12/26 05:40:48;;;;;;;0.60;0.10;;;5.70;41.80;;;;;;4993331;28;20784;-76
2020/12/26 05:43:15;;;;;;;0.10;0.10;;;5.70;41.30;;;;;;4987816;28;20419;-76
2020/12/26 05:45:42;;;;;;;0.20;0.10;;;5.60;41.60;;;;;;4992097;28;20398;-75
2020/12/26 05:48:10;;;;;;;0.17;0.10;;;5.70;41.40;;;;;;4987660;28;20887;-76
2020/12/26 05:50:36;;;;;;;0.20;0.10;;;5.70;40.90;;;;;;4990470;28;20429;-76
2020/12/26 05:53:02;;;;;;;0.77;0.17;;;5.70;41.40;;;;;;5008897;28;20410;-76
2020/12/26 05:55:36;;;;;;;0.70;0.10;;;5.70;41.20;;;;;;4995024;28;20912;-75
2020/12/26 05:58:03;;;;;;;3.50;0.30;;;5.70;41.40;;;;;;4987727;28;20414;-75
2020/12/26 06:00:37;;;;;;;0.22;0.10;;;5.60;42.00;;;;;;4994933;28;20793;-75
2020/12/26 06:03:22;;;;;;;0.10;0.10;;;5.40;42.20;;;;;;4999855;28;20456;-75
2020/12/26 06:05:48;;;;;;;0.20;0.10;;;5.50;41.10;;;;;;4982605;28;20477;-76
2020/12/26 06:08:15;;;;;;;0.70;0.10;;;5.50;41.40;;;;;;4986805;28;20434;-75
2020/12/26 06:10:47;;;;;;;0.70;0.20;;;5.50;41.00;;;;;;4991783;28;20433;-75
2020/12/26 06:13:15;;;;;;;0.28;0.13;;;5.50;41.40;;;;;;5001388;28;20455;-75
2020/12/26 06:15:44;;;;;;;0.35;0.10;;;5.60;41.00;;;;;;4994548;28;20399;-75
2020/12/26 06:18:12;;;;;;;0.10;0.10;;;5.70;40.40;;;;;;4983982;28;20445;-76
2020/12/26 06:20:38;;;;;;;0.20;0.10;;;5.80;40.60;;;;;;4994486;28;20429;-75
2020/12/26 06:23:04;;;;;;;0.10;0.10;;;5.90;39.60;;;;;;5006611;28;20909;-75
2020/12/26 06:25:33;;;;;;;1.10;0.10;;;5.90;40.30;;;;;;4987926;28;20528;-75
2020/12/26 06:28:01;;;;;;;0.45;0.20;;;5.80;40.10;;;;;;4994263;28;20532;-76
2020/12/26 06:30:28;;;;;;;0.57;0.40;;;5.80;40.40;;;;;;4994119;28;20418;-76
2020/12/26 06:32:55;;;;;;;0.82;0.30;;;5.70;40.20;;;;;;4993636;28;20421;-76
2020/12/26 06:35:22;;;;;;;1.10;0.10;;;5.70;41.30;;;;;;4994078;28;20402;-75
2020/12/26 06:38:09;;;;;;;0.57;0.20;;;5.70;40.40;;;;;;4994166;28;20437;-75
2020/12/26 06:40:35;;;;;;;0.30;0.15;;;5.90;39.50;;;;;;4989707;28;20528;-76
2020/12/26 06:43:01;;;;;;;0.52;0.20;;;5.80;39.60;;;;;;4993552;28;20488;-76
2020/12/26 06:45:32;;;;;;;1.50;0.40;;;5.90;39.00;;;;;;4991339;28;20396;-75
2020/12/26 06:47:58;;;;;;;0.70;0.35;;;6.00;38.90;;;;;;4980094;28;20403;-75
2020/12/26 06:50:25;;;;;;;1.00;0.30;;;5.90;39.40;;;;;;4983387;28;20428;-75
2020/12/26 06:52:52;;;;;;;0.85;0.50;;;5.80;39.40;;;;;;4978152;28;20412;-75
2020/12/26 06:55:41;;;;;;;0.50;0.20;;;5.80;39.70;;;;;;4990742;28;20414;-75
2020/12/26 06:58:11;;;;;;;1.30;0.30;;;5.90;39.10;;;;;;4993197;28;20544;-75
2020/12/26 07:00:38;;;;;;;0.35;0.15;;;5.80;39.50;;;;;;4978500;28;20444;-76
2020/12/26 07:03:24;;;;;;;0.70;0.30;;;5.70;39.80;;;;;;4975582;28;20411;-75
2020/12/26 07:05:52;;;;;;;0.90;0.20;;;5.70;39.70;;;;;;4990314;28;20480;-76
2020/12/26 07:08:26;;;;;;;0.60;0.20;;;;;;;;;;4975696;28;20410;-75
2020/12/26 07:10:52;;;;;;;2.05;0.40;;;5.70;39.50;;;;;;4991598;28;20744;-76
2020/12/26 07:13:47;;;;;;;0.90;0.35;;;5.80;39.60;;;;;;4975768;28;20509;-76
2020/12/26 07:16:38;;;;;;;1.40;0.40;;;5.70;39.20;;;;;;4988909;28;20759;-76
2020/12/26 07:19:24;;;;;;;0.30;0.20;;;5.60;39.50;;;;;;4991912;28;20391;-76
2020/12/26 07:21:51;;;;;;;1.10;0.28;;;5.60;39.70;;;;;;4991234;28;20514;-75
2020/12/26 07:24:20;;;;;;;1.50;0.20;;;5.70;39.20;;;;;;4977853;28;20413;-75
2020/12/26 07:26:46;;;;;;;0.30;0.20;;;5.70;39.60;;;;;;4968099;28;21172;-76
2020/12/26 07:29:23;;;;;;;0.30;0.20;;;5.80;38.90;;;;;;4987481;28;20425;-75
2020/12/26 07:31:49;;;;;;;0.88;0.20;;;5.90;39.00;;;;;;4992283;28;20458;-75
2020/12/26 07:34:34;;;;;;;0.35;0.20;;;5.80;38.80;;;;;;4976460;28;20405;-75
2020/12/26 07:36:59;;;;;;;0.30;0.20;;;5.90;38.70;;;;;;4989612;28;20767;-75
2020/12/26 07:39:26;;;;;;;0.43;0.22;;;5.90;38.80;;;;;;4974998;28;20413;-75
2020/12/26 07:41:52;;;;;;;2.95;0.30;;;5.90;39.40;;;;;;4984140;28;20410;-75
2020/12/26 07:44:19;;;;;;;0.57;0.10;;;;;;;;;;4991417;28;20430;-75
2020/12/26 07:46:46;;;;;;;0.90;0.40;;;;;;;;;;5004094;28;20505;-75
2020/12/26 07:49:14;;;;;;;0.40;0.20;;;8.00;48.10;;;;;;4998560;28;20426;-76
2020/12/26 07:51:40;;;;;;;0.98;0.35;;;;;;;;;;5005555;28;20417;-75
2020/12/26 07:54:06;;;;;;;0.52;0.30;;;9.00;33.90;;;;;;5005591;28;20410;-76
2020/12/26 07:56:33;;;;;;;0.40;0.30;;;9.70;32.70;;;;;;4977406;28;20408;-76
2020/12/26 07:58:59;;;;;;;0.70;0.30;;;9.80;32.90;;;;;;4982570;28;20400;-76
2020/12/26 08:01:25;;;;;;;0.43;0.30;;;9.60;33.20;;;;;;4973088;28;20410;-76
2020/12/26 08:03:59;;;;;;;1.30;0.50;;;9.10;34.40;;;;;;4980190;28;20513;-75
2020/12/26 08:06:25;;;;;;;1.70;0.40;;;;;;;;;;4989561;28;20420;-75
2020/12/26 08:08:52;;;;;;;1.10;0.50;;;;;;;;;;4989058;28;20410;-75
2020/12/26 08:11:22;;;;;;;1.20;0.38;;;8.50;34.50;;;;;;4987125;28;20406;-75
2020/12/26 08:13:59;;;;;;;1.08;0.30;;;7.10;36.70;;;;;;4986759;28;20466;-75
2020/12/26 08:16:25;;;;;;;0.68;0.30;;;;;;;;;;4987952;28;20398;-75
2020/12/26 08:18:51;;;;;;;1.30;0.40;;;6.80;37.10;;;;;;4986380;28;20410;-75
2020/12/26 08:21:19;;;;;;;1.80;0.30;;;6.90;37.70;;;;;;4982298;28;20402;-75
2020/12/26 08:23:55;;;;;;;0.93;0.30;;;6.90;36.70;;;;;;4991059;28;20514;-75
2020/12/26 08:26:21;;;;;;;1.58;0.40;;;6.90;37.10;;;;;;4991123;28;20949;-75
2020/12/26 08:28:49;;;;;;;1.10;0.40;;;6.90;37.00;;;;;;4986088;28;20766;-75
2020/12/26 08:31:20;;;;;;;0.70;0.50;;;7.00;37.90;;;;;;4981343;28;20994;-76
2020/12/26 08:33:50;;;;;;;1.50;0.37;;;7.00;37.60;;;;;;4974969;28;20910;-75
2020/12/26 08:36:24;;;;;;;0.50;0.35;;;7.00;38.20;;;;;;4987847;28;20414;-76
2020/12/26 08:38:55;;;;;;;0.55;0.30;;;7.00;38.00;;;;;;4988261;28;20406;-75
2020/12/26 08:41:22;;;;;;;0.80;0.30;;;7.10;37.90;;;;;;4988718;28;20416;-75
2020/12/26 08:43:48;;;;;;;0.57;0.30;;;7.10;36.90;;;;;;4975958;28;20409;-75
2020/12/26 08:46:17;;;;;;;1.40;0.47;;;7.10;37.80;;;;;;4990051;28;20390;-75
2020/12/26 08:48:43;;;;;;;1.50;0.40;;;7.10;37.20;;;;;;4991751;28;20762;-75
2020/12/26 08:51:20;;;;;;;0.80;0.30;;;7.20;36.40;;;;;;4991784;28;20905;-75
2020/12/26 08:53:47;;;;;;;0.82;0.30;;;7.20;36.50;;;;;;4982889;28;20523;-75
2020/12/26 08:56:13;;;;;;;1.45;0.40;;;7.30;36.50;;;;;;4992808;28;20485;-75
2020/12/26 08:58:47;;;;;;;0.30;0.20;;;7.30;36.10;;;;;;4995821;28;20402;-75
2020/12/26 09:01:13;;;;;;;1.05;0.30;;;7.40;36.40;;;;;;5004240;28;20430;-76
2020/12/26 09:03:47;;;;;;;0.87;0.30;;;7.30;37.10;;;;;;4980526;28;20408;-76
2020/12/26 09:06:13;;;;;;;1.30;0.35;;;7.50;36.70;;;;;;4995495;28;20402;-75
2020/12/26 09:08:39;;;;;;;0.50;0.30;;;7.60;36.80;;;;;;4995772;28;20405;-75
2020/12/26 09:11:07;;;;;;;0.30;0.20;;;7.60;35.90;;;;;;4988003;28;20422;-75
2020/12/26 09:13:35;;;;;;;0.55;0.30;;;7.60;35.90;;;;;;4995558;28;20481;-75
2020/12/26 09:16:07;;;;;;;1.00;0.50;;;7.70;35.30;;;;;;4995279;28;20395;-75
2020/12/26 09:18:42;;;;;;;0.93;0.80;;;7.70;35.50;;;;;;4991968;28;20391;-75
2020/12/26 09:21:19;;;;;;;0.70;0.30;;;7.70;34.80;;;;;;4975583;28;20494;-75
2020/12/26 09:23:46;;;;;;;0.60;0.30;;;7.70;35.10;;;;;;4988627;28;20410;-75
2020/12/26 09:26:14;;;;;;;1.30;0.30;;;7.70;34.80;;;;;;4991180;28;20766;-75
2020/12/26 09:28:52;;;;;;;0.55;0.40;;;7.70;35.50;;;;;;4992011;28;20430;-75
2020/12/26 09:31:20;;;;;;;1.27;0.30;;;7.90;34.40;;;;;;4991753;28;20410;-75
2020/12/26 09:33:47;;;;;;;0.57;0.47;;;7.90;35.20;;;;;;4994114;28;20886;-75
2020/12/26 09:36:15;;;;;;;0.68;0.32;;;7.80;35.80;;;;;;4994457;28;20405;-75
2020/12/26 09:38:42;;;;;;;1.25;0.40;;;7.90;34.30;;;;;;4994277;28;20394;-75
2020/12/26 09:41:12;;;;;;;0.90;0.30;;;7.90;34.50;;;;;;4975086;28;20404;-75
2020/12/26 09:43:38;;;;;;;1.55;0.40;;;7.90;35.10;;;;;;4989592;28;20402;-75
2020/12/26 09:46:05;;;;;;;0.52;0.32;;;7.90;34.70;;;;;;4991260;28;20448;-75
2020/12/26 09:48:31;;;;;;;1.30;0.40;;;8.00;34.40;;;;;;4988893;28;20457;-75
2020/12/26 09:50:58;;;;;;;2.30;0.50;;;8.00;34.40;;;;;;4991861;28;20429;-75
2020/12/26 09:53:24;;;;;;;1.55;0.40;;;8.10;34.50;;;;;;4987120;28;20510;-75
2020/12/26 09:55:50;;;;;;;0.82;0.20;;;8.10;34.50;;;;;;4979462;28;20442;-75
2020/12/26 09:58:16;;;;;;;0.90;0.40;;;8.10;34.90;;;;;;4987647;28;20412;-75
2020/12/26 10:00:42;;;;;;;0.87;0.30;;;8.10;35.40;;;;;;4992567;28;20390;-75
2020/12/26 10:03:08;;;;;;;1.30;0.50;;;8.10;33.70;;;;;;4992908;28;20952;-75
2020/12/26 10:05:34;;;;;;;1.33;0.32;;;8.20;34.70;;;;;;4989013;28;20775;-75
2020/12/26 10:08:01;;;;;;;1.88;0.55;;;8.30;33.60;;;;;;4984850;28;20425;-75
2020/12/26 10:10:27;;;;;;;0.90;0.30;;;8.40;34.60;;;;;;4991019;28;20428;-74
2020/12/26 10:12:53;;;;;;;0.80;0.30;;;8.40;34.30;;;;;;4991144;28;20479;-75
2020/12/26 10:15:19;;;;;;;0.63;0.40;;;8.50;34.00;;;;;;4993100;28;20398;-75
2020/12/26 10:17:45;;;;;;;1.60;0.30;;;8.50;34.50;;;;;;4987428;28;20429;-75
2020/12/26 10:20:11;;;;;;;2.08;0.40;;;8.60;32.80;;;;;;4993482;28;20486;-75
2020/12/26 10:22:37;;;;;;;1.25;0.40;;;8.60;34.40;;;;;;4984509;28;20983;-75
2020/12/26 10:25:04;;;;;;;1.23;0.40;;;8.70;33.50;;;;;;4990513;28;20493;-74
2020/12/26 10:27:30;;;;;;;0.60;0.30;;;8.90;32.60;;;;;;4992066;28;20428;-75
2020/12/26 10:29:56;;;;;;;1.02;0.30;;;8.90;33.20;;;;;;4994298;28;20414;-75
2020/12/26 10:32:22;;;;;;;0.70;0.30;;;9.00;32.80;;;;;;4993670;28;20412;-75
2020/12/26 10:34:47;;;;;;;0.90;0.40;;;9.00;32.40;;;;;;4986720;28;20397;-75
2020/12/26 10:37:15;;;;;;;0.60;0.30;;;9.00;32.00;;;;;;4992377;28;20399;-74
2020/12/26 10:39:42;;;;;;;0.68;0.30;;;9.10;32.80;;;;;;4982797;28;20911;-75
2020/12/26 10:42:08;;;;;;;0.93;0.47;;;9.00;32.20;;;;;;4990539;28;20821;-75
2020/12/26 10:44:35;;;;;;;0.97;0.40;;;9.00;32.60;;;;;;4991843;28;20536;-74
2020/12/26 10:47:01;;;;;;;0.50;0.30;;;9.10;33.20;;;;;;4990381;28;20935;-75
2020/12/26 10:49:29;;;;;;;1.03;0.30;;;9.20;32.30;;;;;;4991382;28;20419;-75
2020/12/26 10:51:55;;;;;;;1.07;0.30;;;;;;;;;;4993163;28;20410;-75
2020/12/26 10:54:21;;;;;;;0.73;0.25;;;;;;;;;;4985138;28;20974;-75
2020/12/26 10:56:48;;;;;;;1.38;0.40;;;;;;;;;;4993052;28;20761;-75
2020/12/26 10:59:15;;;;;;;1.25;0.40;;;;;;;;;;4989125;28;20405;-74
2020/12/26 11:01:41;;;;;;;0.70;0.20;;;9.20;32.10;;;;;;4991307;28;20417;-74
2020/12/26 11:04:07;;;;;;;0.90;0.40;;;9.60;31.10;;;;;;4992792;28;20760;-75
2020/12/26 11:06:34;;;;;;;0.50;0.30;;;9.60;29.90;;;;;;4993333;28;20395;-75
2020/12/26 11:09:00;;;;;;;0.85;0.30;;;9.70;30.50;;;;;;4980394;28;20415;-75
2020/12/26 11:11:26;;;;;;;0.60;0.30;;;9.70;31.40;;;;;;4990475;28;20465;-74
2020/12/26 11:13:53;;;;;;;1.10;0.30;;;;;;;;;;4992755;28;20406;-74
2020/12/26 11:16:20;;;;;;;0.50;0.30;;;;;;;;;;4992910;28;20493;-75
2020/12/26 11:18:46;;;;;;;0.90;0.23;;;;;;;;;;4990239;28;20414;-75
2020/12/26 11:21:16;;;;;;;0.85;0.30;;;;;;;;;;4982966;28;20411;-75
2020/12/26 11:23:42;;;;;;;0.50;0.25;;;;;;;;;;4985939;28;20406;-75
2020/12/26 11:26:08;;;;;;;0.57;0.25;;;;;;;;;;4991947;28;20402;-75
2020/12/26 11:28:34;;;;;;;0.60;0.40;;;;;;;;;;4992201;28;20411;-75
2020/12/26 11:31:01;;;;;;;0.98;0.28;;;;;;;;;;4986709;28;20426;-75
2020/12/26 11:33:28;;;;;;;0.35;0.20;;;;;;;;;;4986499;28;20453;-75
2020/12/26 11:35:57;;;;;;;0.93;0.40;;;;;;;;;;4992884;28;20438;-74
2020/12/26 11:38:23;;;;;;;0.57;0.30;;;;;;;;;;4991862;28;20901;-74
2020/12/26 11:40:49;;;;;;;0.40;0.30;;;;;;;;;;4993634;28;20407;-75
2020/12/26 11:43:15;;;;;;;0.30;0.17;;;;;;;;;;4990240;28;20438;-75
2020/12/26 11:45:41;;;;;;;0.50;0.20;;;;;;;;;;4986712;28;20402;-75
2020/12/26 11:48:08;;;;;;;0.57;0.20;;;;;;;;;;4986374;28;20402;-75
2020/12/26 11:50:35;;;;;;;0.30;0.20;;;;;;;;;;4992472;28;20418;-76
2020/12/26 11:53:01;;;;;;;0.30;0.20;;;;;;;;;;4998544;28;20406;-75
2020/12/26 11:55:27;;;;;;;0.40;0.10;;;;;;;;;;4992856;28;20481;-75
2020/12/26 11:57:56;;;;;;;0.30;0.15;;;;;;;;;;4992499;28;20402;-75
2020/12/26 12:00:22;;;;;;;0.40;0.20;;;;;;;;;;4992605;28;20394;-75
2020/12/26 12:02:49;;;;;;;0.40;0.20;;;;;;;;;;4995852;28;20764;-75
2020/12/26 12:05:15;;;;;;;1.50;0.30;;;;;;;;;;4992247;28;20477;-75
2020/12/26 12:07:42;;;;;;;0.65;0.30;;;;;;;;;;5003937;28;20406;-75
2020/12/26 12:10:08;;;;;;;0.50;0.40;;;;;;;;;;4992593;28;20909;-75
2020/12/26 12:12:34;;;;;;;0.55;0.40;;;;;;;;;;4992511;28;20762;-75
2020/12/26 12:15:00;;;;;;;0.55;0.20;;;;;;;;;;5001277;28;20941;-76
2020/12/26 12:17:26;;;;;;;0.20;0.20;;;;;;;;;;5002541;28;20984;-75
2020/12/26 12:19:53;;;;;;;0.33;0.20;;;;;;;;;;4992206;28;20403;-75
2020/12/26 12:22:19;;;;;;;0.40;0.20;;;;;;;;;;4988055;28;20417;-76
2020/12/26 12:24:46;;;;;;;0.43;0.22;;;;;;;;;;4986494;28;20426;-75
2020/12/26 12:27:12;;;;;;;0.80;0.20;;;;;;;;;;4992257;28;20406;-75
2020/12/26 12:29:38;;;;;;;0.70;0.30;;;;;;;;;;4995544;28;20422;-76
2020/12/26 12:32:04;;;;;;;0.20;0.15;;;;;;;;;;4994523;28;20461;-76
2020/12/26 12:34:31;;;;;;;0.30;0.30;;;;;;;;;;4997063;28;20406;-75
2020/12/26 12:36:57;;;;;;;0.40;0.20;;;;;;;;;;4989586;28;20468;-76
2020/12/26 12:39:23;;;;;;;0.20;0.10;;;;;;;;;;4986034;28;20403;-75
2020/12/26 12:41:53;;;;;;;0.30;0.20;;;;;;;;;;4984978;28;20474;-76
2020/12/26 12:44:19;;;;;;;0.50;0.40;;;;;;;;;;4995416;28;20425;-75
2020/12/26 12:46:45;;;;;;;0.80;0.30;;;;;;;;;;4992047;28;20400;-76
2020/12/26 12:49:11;;;;;;;0.90;0.40;;;;;;;;;;4988207;28;20399;-75
2020/12/26 12:51:39;;;;;;;0.30;0.30;;;;;;;;;;4989410;28;20428;-76
2020/12/26 12:54:05;;;;;;;0.50;0.40;;;;;;;;;;4989350;28;20460;-76
2020/12/26 12:56:31;;;;;;;0.57;0.40;;;11.50;67.70;;;;;;4989921;28;20402;-76
2020/12/26 12:58:58;;;;;;;0.38;0.20;;;;;;;;;;4991725;28;20457;-76
2020/12/26 13:01:24;;;;;;;0.45;0.30;;;;;;;;;;4979046;28;20408;-76
2020/12/26 13:03:50;;;;;;;0.65;0.40;;;;;;;;;;4974863;28;20431;-76
2020/12/26 13:06:17;;;;;;;1.30;0.32;;;;;;;;;;4992404;28;20415;-76
2020/12/26 13:08:43;;;;;;;0.70;0.30;;;;;;;;;;4993410;28;20882;-76
2020/12/26 13:11:09;;;;;;;0.80;0.50;;;;;;;;;;4975603;28;20434;-76
2020/12/26 13:13:36;;;;;;;1.55;0.82;;;;;;;;;;4992877;28;20406;-76
2020/12/26 13:16:03;;;;;;;2.22;1.65;;;;;;;;;;4974448;28;20461;-76
2020/12/26 13:18:29;;;;;;;2.88;0.90;;;;;;;;;;4997823;28;20909;-76
2020/12/26 13:20:55;;;;;;;1.48;0.50;;;;;;;;;;4992748;28;20881;-76
2020/12/26 13:23:21;;;;;;;1.45;0.98;;;;;;;;;;4992687;28;20890;-76
2020/12/26 13:25:47;;;;;;;2.60;2.23;;;12.90;31.70;;;;;;4992611;28;20406;-76
2020/12/26 13:28:13;;;;;;;1.00;0.75;;;11.20;35.90;;;;;;4988938;28;20421;-76